Minneapolis, Minnesota
Current Conditions -  °F | °C
As of 1:53 PM on Thursday 27 Nov 2014 (Local Time) from KMSP Reporting Station
Few Clouds Few Clouds  
Wind Chill:   Ceiling: Unl
Heat Index:   Visibility: 10mi
Dew Point: -4°   Wind: 0mph
Humidity: 61%   Direction: NA
Pressure: 30.46"   Gusts: NA
Location:  44.98°N, 93.26°W
Report Text: KMSP 271953Z 00000KT 10SM FEW300 M14/M20 A3046 RMK AO2 SLP336 T11391200
Loading
Personal Weather Stations






























Interactive Weather Map New forecast layout! Learn more

10-Day Weather Forecast

Advertisements
Track Severe Weather on mobile